首页
METAR-TAF:

METAR-TAF

机场 :

Maragheh, 伊朗

纬度: 37-20-55N, 经度: 046-07-35E, 海拔: 1340米

当前天气观测

该预报发布于48分钟前的17:00 UTC
风速16节,风向东转东南
温度 20°C
湿度 40%
气压 1019 hPa
能见度10公里或以上
少量云层高于4000英尺

METAR: OITM 061700Z 11016KT 9999 FEW040 20/06 Q1019

时间: 22:18 (17:48 UTC)


TAF: 丢失

超过4000个机场的气象观测和天气预报(METAR&TAF报告)。

可查询的气象台以黄色和红色小点在地图上表示。

将鼠标移到小点上方,可查看气象台名称。

然后点击查看天气观测和预报。

如需切换地图:点击带黑十字的绿色按钮放大地图;点击带横线的绿色按钮缩小地图;或者点击绿色箭头查看邻近地区的地图。


METAR-TAF: